sensor_id;sensor_type;location;lat;lon;timestamp;P1;durP1;ratioP1;P2;durP2;ratioP2
13991;SDS011;7070;53.586;9.692;2022-07-24T00:01:54;0.50;;;0.50;;
13991;SDS011;7070;53.586;9.692;2022-07-24T00:04:21;0.47;;;0.47;;
13991;SDS011;7070;53.586;9.692;2022-07-24T00:06:48;0.40;;;0.40;;
13991;SDS011;7070;53.586;9.692;2022-07-24T00:09:15;0.43;;;0.43;;
13991;SDS011;7070;53.586;9.692;2022-07-24T00:12:08;0.40;;;0.40;;
13991;SDS011;7070;53.586;9.692;2022-07-24T00:14:44;0.50;;;0.50;;
13991;SDS011;7070;53.586;9.692;2022-07-24T00:17:11;0.40;;;0.40;;
13991;SDS011;7070;53.586;9.692;2022-07-24T00:19:38;0.40;;;0.40;;
13991;SDS011;7070;53.586;9.692;2022-07-24T00:22:05;0.50;;;0.50;;
13991;SDS011;7070;53.586;9.692;2022-07-24T00:24:31;0.50;;;0.50;;
13991;SDS011;7070;53.586;9.692;2022-07-24T00:26:58;0.43;;;0.43;;
13991;SDS011;7070;53.586;9.692;2022-07-24T00:29:27;0.40;;;0.40;;
13991;SDS011;7070;53.586;9.692;2022-07-24T00:31:54;0.50;;;0.50;;
13991;SDS011;7070;53.586;9.692;2022-07-24T00:34:21;0.40;;;0.40;;
13991;SDS011;7070;53.586;9.692;2022-07-24T00:36:47;0.50;;;0.50;;
13991;SDS011;7070;53.586;9.692;2022-07-24T00:39:14;0.50;;;0.50;;
13991;SDS011;7070;53.586;9.692;2022-07-24T00:41:41;0.40;;;0.40;;
13991;SDS011;7070;53.586;9.692;2022-07-24T00:44:09;0.50;;;0.50;;
13991;SDS011;7070;53.586;9.692;2022-07-24T00:46:39;0.40;;;0.40;;
13991;SDS011;7070;53.586;9.692;2022-07-24T00:49:08;0.50;;;0.50;;
13991;SDS011;7070;53.586;9.692;2022-07-24T00:51:36;0.50;;;0.50;;
13991;SDS011;7070;53.586;9.692;2022-07-24T00:54:03;0.50;;;0.50;;
13991;SDS011;7070;53.586;9.692;2022-07-24T00:56:31;0.43;;;0.43;;
13991;SDS011;7070;53.586;9.692;2022-07-24T00:58:58;0.50;;;0.50;;
13991;SDS011;7070;53.586;9.692;2022-07-24T01:01:26;0.50;;;0.50;;
13991;SDS011;7070;53.586;9.692;2022-07-24T01:03:54;0.50;;;0.50;;
13991;SDS011;7070;53.586;9.692;2022-07-24T01:06:22;0.50;;;0.50;;
13991;SDS011;7070;53.586;9.692;2022-07-24T01:08:49;0.50;;;0.50;;
13991;SDS011;7070;53.586;9.692;2022-07-24T01:11:17;0.50;;;0.50;;
13991;SDS011;7070;53.586;9.692;2022-07-24T01:13:46;0.40;;;0.40;;
13991;SDS011;7070;53.586;9.692;2022-07-24T01:16:13;0.40;;;0.40;;
13991;SDS011;7070;53.586;9.692;2022-07-24T01:18:41;0.40;;;0.40;;
13991;SDS011;7070;53.586;9.692;2022-07-24T01:21:09;0.40;;;0.40;;
13991;SDS011;7070;53.586;9.692;2022-07-24T01:23:36;0.50;;;0.50;;
13991;SDS011;7070;53.586;9.692;2022-07-24T01:26:05;0.40;;;0.40;;
13991;SDS011;7070;53.586;9.692;2022-07-24T01:28:33;0.50;;;0.50;;
13991;SDS011;7070;53.586;9.692;2022-07-24T01:31:00;0.50;;;0.50;;
13991;SDS011;7070;53.586;9.692;2022-07-24T01:33:27;0.50;;;0.50;;
13991;SDS011;7070;53.586;9.692;2022-07-24T01:35:54;0.50;;;0.50;;
13991;SDS011;7070;53.586;9.692;2022-07-24T01:38:22;0.40;;;0.40;;
13991;SDS011;7070;53.586;9.692;2022-07-24T01:40:49;0.50;;;0.50;;
13991;SDS011;7070;53.586;9.692;2022-07-24T01:43:16;0.50;;;0.50;;
13991;SDS011;7070;53.586;9.692;2022-07-24T01:45:43;0.40;;;0.40;;
13991;SDS011;7070;53.586;9.692;2022-07-24T01:48:10;0.40;;;0.40;;
13991;SDS011;7070;53.586;9.692;2022-07-24T01:50:37;0.40;;;0.40;;
13991;SDS011;7070;53.586;9.692;2022-07-24T01:53:03;0.43;;;0.43;;
13991;SDS011;7070;53.586;9.692;2022-07-24T01:55:32;0.40;;;0.40;;
13991;SDS011;7070;53.586;9.692;2022-07-24T01:57:58;0.50;;;0.50;;
13991;SDS011;7070;53.586;9.692;2022-07-24T02:00:25;0.50;;;0.50;;
13991;SDS011;7070;53.586;9.692;2022-07-24T02:02:52;0.50;;;0.50;;
13991;SDS011;7070;53.586;9.692;2022-07-24T02:05:19;0.50;;;0.50;;
13991;SDS011;7070;53.586;9.692;2022-07-24T02:07:53;0.50;;;0.50;;
13991;SDS011;7070;53.586;9.692;2022-07-24T02:10:22;0.50;;;0.50;;
13991;SDS011;7070;53.586;9.692;2022-07-24T02:12:51;0.50;;;0.50;;
13991;SDS011;7070;53.586;9.692;2022-07-24T02:15:18;0.50;;;0.50;;
13991;SDS011;7070;53.586;9.692;2022-07-24T02:17:45;0.40;;;0.40;;
13991;SDS011;7070;53.586;9.692;2022-07-24T02:20:12;0.40;;;0.40;;
13991;SDS011;7070;53.586;9.692;2022-07-24T02:22:39;0.50;;;0.50;;
13991;SDS011;7070;53.586;9.692;2022-07-24T02:25:07;0.50;;;0.50;;
13991;SDS011;7070;53.586;9.692;2022-07-24T02:27:34;0.50;;;0.50;;
13991;SDS011;7070;53.586;9.692;2022-07-24T02:30:03;0.47;;;0.47;;
13991;SDS011;7070;53.586;9.692;2022-07-24T02:32:31;0.50;;;0.50;;
13991;SDS011;7070;53.586;9.692;2022-07-24T02:34:58;0.50;;;0.50;;
13991;SDS011;7070;53.586;9.692;2022-07-24T02:37:25;0.40;;;0.40;;
13991;SDS011;7070;53.586;9.692;2022-07-24T02:39:51;0.40;;;0.40;;
13991;SDS011;7070;53.586;9.692;2022-07-24T02:42:18;0.50;;;0.50;;
13991;SDS011;7070;53.586;9.692;2022-07-24T02:44:45;0.50;;;0.50;;
13991;SDS011;7070;53.586;9.692;2022-07-24T02:47:16;0.50;;;0.50;;
13991;SDS011;7070;53.586;9.692;2022-07-24T02:49:42;0.40;;;0.40;;
13991;SDS011;7070;53.586;9.692;2022-07-24T02:52:09;0.50;;;0.50;;
13991;SDS011;7070;53.586;9.692;2022-07-24T02:54:36;0.50;;;0.50;;
13991;SDS011;7070;53.586;9.692;2022-07-24T02:57:03;0.40;;;0.40;;
13991;SDS011;7070;53.586;9.692;2022-07-24T02:59:31;0.40;;;0.40;;
13991;SDS011;7070;53.586;9.692;2022-07-24T03:01:57;0.40;;;0.40;;
13991;SDS011;7070;53.586;9.692;2022-07-24T03:04:26;0.50;;;0.50;;
13991;SDS011;7070;53.586;9.692;2022-07-24T03:06:53;0.50;;;0.50;;
13991;SDS011;7070;53.586;9.692;2022-07-24T03:09:20;0.40;;;0.40;;
13991;SDS011;7070;53.586;9.692;2022-07-24T03:11:46;0.53;;;0.53;;
13991;SDS011;7070;53.586;9.692;2022-07-24T03:14:13;0.50;;;0.50;;
13991;SDS011;7070;53.586;9.692;2022-07-24T03:16:40;0.40;;;0.40;;
13991;SDS011;7070;53.586;9.692;2022-07-24T03:19:07;0.40;;;0.40;;
13991;SDS011;7070;53.586;9.692;2022-07-24T03:21:35;0.40;;;0.40;;
13991;SDS011;7070;53.586;9.692;2022-07-24T03:24:02;0.40;;;0.40;;
13991;SDS011;7070;53.586;9.692;2022-07-24T03:26:29;0.47;;;0.47;;
13991;SDS011;7070;53.586;9.692;2022-07-24T03:28:56;0.50;;;0.50;;
13991;SDS011;7070;53.586;9.692;2022-07-24T03:31:23;0.40;;;0.40;;
13991;SDS011;7070;53.586;9.692;2022-07-24T03:33:50;0.50;;;0.50;;
13991;SDS011;7070;53.586;9.692;2022-07-24T03:36:16;0.40;;;0.40;;
13991;SDS011;7070;53.586;9.692;2022-07-24T03:38:45;0.50;;;0.50;;
13991;SDS011;7070;53.586;9.692;2022-07-24T03:41:11;0.50;;;0.50;;
13991;SDS011;7070;53.586;9.692;2022-07-24T03:43:38;0.40;;;0.40;;
13991;SDS011;7070;53.586;9.692;2022-07-24T03:46:05;0.40;;;0.40;;
13991;SDS011;7070;53.586;9.692;2022-07-24T03:48:32;0.50;;;0.50;;
13991;SDS011;7070;53.586;9.692;2022-07-24T03:50:59;0.50;;;0.50;;
13991;SDS011;7070;53.586;9.692;2022-07-24T03:53:25;0.40;;;0.40;;
13991;SDS011;7070;53.586;9.692;2022-07-24T03:55:53;0.50;;;0.50;;
13991;SDS011;7070;53.586;9.692;2022-07-24T03:58:20;0.50;;;0.50;;
13991;SDS011;7070;53.586;9.692;2022-07-24T04:00:47;0.50;;;0.50;;
13991;SDS011;7070;53.586;9.692;2022-07-24T04:03:14;0.50;;;0.50;;
13991;SDS011;7070;53.586;9.692;2022-07-24T04:05:41;0.40;;;0.40;;
13991;SDS011;7070;53.586;9.692;2022-07-24T04:08:07;0.40;;;0.40;;
13991;SDS011;7070;53.586;9.692;2022-07-24T04:10:34;0.50;;;0.50;;
13991;SDS011;7070;53.586;9.692;2022-07-24T04:13:02;0.50;;;0.50;;
13991;SDS011;7070;53.586;9.692;2022-07-24T04:15:29;0.40;;;0.40;;
13991;SDS011;7070;53.586;9.692;2022-07-24T04:17:56;0.40;;;0.40;;
13991;SDS011;7070;53.586;9.692;2022-07-24T04:20:23;0.50;;;0.50;;
13991;SDS011;7070;53.586;9.692;2022-07-24T04:22:50;0.50;;;0.50;;
13991;SDS011;7070;53.586;9.692;2022-07-24T04:25:17;0.50;;;0.50;;
13991;SDS011;7070;53.586;9.692;2022-07-24T04:27:45;0.50;;;0.50;;
13991;SDS011;7070;53.586;9.692;2022-07-24T04:30:14;0.40;;;0.40;;
13991;SDS011;7070;53.586;9.692;2022-07-24T04:32:41;0.40;;;0.40;;
13991;SDS011;7070;53.586;9.692;2022-07-24T04:35:07;0.40;;;0.40;;
13991;SDS011;7070;53.586;9.692;2022-07-24T04:37:34;0.50;;;0.50;;
13991;SDS011;7070;53.586;9.692;2022-07-24T04:40:01;0.50;;;0.50;;
13991;SDS011;7070;53.586;9.692;2022-07-24T04:42:29;0.40;;;0.40;;
13991;SDS011;7070;53.586;9.692;2022-07-24T04:44:56;0.50;;;0.50;;
13991;SDS011;7070;53.586;9.692;2022-07-24T04:47:24;0.40;;;0.40;;
13991;SDS011;7070;53.586;9.692;2022-07-24T04:49:51;0.40;;;0.40;;
13991;SDS011;7070;53.586;9.692;2022-07-24T04:52:17;0.40;;;0.40;;
13991;SDS011;7070;53.586;9.692;2022-07-24T04:54:44;0.50;;;0.50;;
13991;SDS011;7070;53.586;9.692;2022-07-24T04:57:11;0.50;;;0.50;;
13991;SDS011;7070;53.586;9.692;2022-07-24T04:59:38;0.40;;;0.40;;
13991;SDS011;7070;53.586;9.692;2022-07-24T05:02:05;0.40;;;0.40;;
13991;SDS011;7070;53.586;9.692;2022-07-24T05:04:33;0.40;;;0.40;;
13991;SDS011;7070;53.586;9.692;2022-07-24T05:07:00;0.40;;;0.40;;
13991;SDS011;7070;53.586;9.692;2022-07-24T05:09:27;0.40;;;0.40;;
13991;SDS011;7070;53.586;9.692;2022-07-24T05:11:54;0.50;;;0.50;;
13991;SDS011;7070;53.586;9.692;2022-07-24T05:14:21;0.40;;;0.40;;
13991;SDS011;7070;53.586;9.692;2022-07-24T05:16:48;0.40;;;0.40;;
13991;SDS011;7070;53.586;9.692;2022-07-24T05:19:15;0.40;;;0.40;;
13991;SDS011;7070;53.586;9.692;2022-07-24T05:21:43;0.30;;;0.30;;
13991;SDS011;7070;53.586;9.692;2022-07-24T05:24:10;0.40;;;0.40;;
13991;SDS011;7070;53.586;9.692;2022-07-24T05:26:37;0.33;;;0.33;;
13991;SDS011;7070;53.586;9.692;2022-07-24T05:29:04;0.40;;;0.40;;
13991;SDS011;7070;53.586;9.692;2022-07-24T05:31:32;0.40;;;0.40;;
13991;SDS011;7070;53.586;9.692;2022-07-24T05:33:59;0.40;;;0.40;;
13991;SDS011;7070;53.586;9.692;2022-07-24T05:36:27;0.40;;;0.40;;
13991;SDS011;7070;53.586;9.692;2022-07-24T05:38:56;0.30;;;0.30;;
13991;SDS011;7070;53.586;9.692;2022-07-24T05:41:22;0.30;;;0.30;;
13991;SDS011;7070;53.586;9.692;2022-07-24T05:43:49;0.30;;;0.30;;
13991;SDS011;7070;53.586;9.692;2022-07-24T05:46:16;0.40;;;0.40;;
13991;SDS011;7070;53.586;9.692;2022-07-24T05:48:43;0.40;;;0.40;;
13991;SDS011;7070;53.586;9.692;2022-07-24T05:51:10;0.40;;;0.40;;
13991;SDS011;7070;53.586;9.692;2022-07-24T05:53:36;0.40;;;0.40;;
13991;SDS011;7070;53.586;9.692;2022-07-24T05:56:05;0.40;;;0.40;;
13991;SDS011;7070;53.586;9.692;2022-07-24T05:58:32;0.40;;;0.40;;
13991;SDS011;7070;53.586;9.692;2022-07-24T06:00:59;0.30;;;0.30;;
13991;SDS011;7070;53.586;9.692;2022-07-24T06:03:26;0.30;;;0.30;;
13991;SDS011;7070;53.586;9.692;2022-07-24T06:05:53;0.33;;;0.33;;
13991;SDS011;7070;53.586;9.692;2022-07-24T06:08:19;0.30;;;0.30;;
13991;SDS011;7070;53.586;9.692;2022-07-24T06:10:46;0.30;;;0.30;;
13991;SDS011;7070;53.586;9.692;2022-07-24T06:13:14;0.20;;;0.20;;
13991;SDS011;7070;53.586;9.692;2022-07-24T06:15:41;0.30;;;0.30;;
13991;SDS011;7070;53.586;9.692;2022-07-24T06:18:08;0.40;;;0.40;;
13991;SDS011;7070;53.586;9.692;2022-07-24T06:20:35;0.40;;;0.40;;
13991;SDS011;7070;53.586;9.692;2022-07-24T06:23:02;0.30;;;0.30;;
13991;SDS011;7070;53.586;9.692;2022-07-24T06:25:29;0.30;;;0.30;;
13991;SDS011;7070;53.586;9.692;2022-07-24T06:27:55;0.30;;;0.30;;
13991;SDS011;7070;53.586;9.692;2022-07-24T06:30:24;0.30;;;0.30;;
13991;SDS011;7070;53.586;9.692;2022-07-24T06:32:54;0.30;;;0.30;;
13991;SDS011;7070;53.586;9.692;2022-07-24T06:35:22;0.30;;;0.30;;
13991;SDS011;7070;53.586;9.692;2022-07-24T06:37:49;0.33;;;0.33;;
13991;SDS011;7070;53.586;9.692;2022-07-24T06:40:16;0.30;;;0.30;;
13991;SDS011;7070;53.586;9.692;2022-07-24T06:42:45;0.30;;;0.30;;
13991;SDS011;7070;53.586;9.692;2022-07-24T06:45:14;0.30;;;0.30;;
13991;SDS011;7070;53.586;9.692;2022-07-24T06:47:43;0.30;;;0.30;;
13991;SDS011;7070;53.586;9.692;2022-07-24T06:50:10;0.40;;;0.40;;
13991;SDS011;7070;53.586;9.692;2022-07-24T06:52:38;0.30;;;0.30;;
13991;SDS011;7070;53.586;9.692;2022-07-24T06:55:05;0.30;;;0.30;;
13991;SDS011;7070;53.586;9.692;2022-07-24T06:57:34;0.23;;;0.23;;
13991;SDS011;7070;53.586;9.692;2022-07-24T07:00:01;0.30;;;0.30;;
13991;SDS011;7070;53.586;9.692;2022-07-24T07:02:30;0.30;;;0.30;;
13991;SDS011;7070;53.586;9.692;2022-07-24T07:04:58;0.33;;;0.33;;
13991;SDS011;7070;53.586;9.692;2022-07-24T07:07:25;0.20;;;0.20;;
13991;SDS011;7070;53.586;9.692;2022-07-24T07:09:52;0.30;;;0.30;;
13991;SDS011;7070;53.586;9.692;2022-07-24T07:12:19;0.20;;;0.20;;
13991;SDS011;7070;53.586;9.692;2022-07-24T07:14:46;0.30;;;0.30;;
13991;SDS011;7070;53.586;9.692;2022-07-24T07:17:12;0.30;;;0.30;;
13991;SDS011;7070;53.586;9.692;2022-07-24T07:19:41;0.20;;;0.20;;
13991;SDS011;7070;53.586;9.692;2022-07-24T07:22:09;0.40;;;0.40;;
13991;SDS011;7070;53.586;9.692;2022-07-24T07:24:36;0.30;;;0.30;;
13991;SDS011;7070;53.586;9.692;2022-07-24T07:27:03;0.30;;;0.30;;
13991;SDS011;7070;53.586;9.692;2022-07-24T07:29:30;0.30;;;0.30;;
13991;SDS011;7070;53.586;9.692;2022-07-24T07:31:57;0.30;;;0.30;;
13991;SDS011;7070;53.586;9.692;2022-07-24T07:34:24;0.30;;;0.30;;
13991;SDS011;7070;53.586;9.692;2022-07-24T07:36:51;0.30;;;0.30;;
13991;SDS011;7070;53.586;9.692;2022-07-24T07:39:19;0.23;;;0.23;;
13991;SDS011;7070;53.586;9.692;2022-07-24T07:41:46;0.20;;;0.20;;
13991;SDS011;7070;53.586;9.692;2022-07-24T07:44:13;0.27;;;0.27;;
13991;SDS011;7070;53.586;9.692;2022-07-24T07:46:40;0.30;;;0.30;;
13991;SDS011;7070;53.586;9.692;2022-07-24T07:49:06;0.30;;;0.30;;
13991;SDS011;7070;53.586;9.692;2022-07-24T07:51:33;0.30;;;0.30;;
13991;SDS011;7070;53.586;9.692;2022-07-24T07:54:00;0.20;;;0.20;;
13991;SDS011;7070;53.586;9.692;2022-07-24T07:56:29;0.30;;;0.30;;
13991;SDS011;7070;53.586;9.692;2022-07-24T07:58:57;0.30;;;0.30;;
13991;SDS011;7070;53.586;9.692;2022-07-24T08:01:24;0.30;;;0.30;;
13991;SDS011;7070;53.586;9.692;2022-07-24T08:03:51;0.30;;;0.30;;
13991;SDS011;7070;53.586;9.692;2022-07-24T08:06:18;0.30;;;0.30;;
13991;SDS011;7070;53.586;9.692;2022-07-24T08:08:45;0.20;;;0.20;;
13991;SDS011;7070;53.586;9.692;2022-07-24T08:11:12;0.30;;;0.30;;
13991;SDS011;7070;53.586;9.692;2022-07-24T08:13:40;0.30;;;0.30;;
13991;SDS011;7070;53.586;9.692;2022-07-24T08:16:07;0.30;;;0.30;;
13991;SDS011;7070;53.586;9.692;2022-07-24T08:18:34;0.30;;;0.30;;
13991;SDS011;7070;53.586;9.692;2022-07-24T08:21:01;0.30;;;0.30;;
13991;SDS011;7070;53.586;9.692;2022-07-24T08:23:28;0.30;;;0.30;;
13991;SDS011;7070;53.586;9.692;2022-07-24T08:25:55;0.30;;;0.30;;
13991;SDS011;7070;53.586;9.692;2022-07-24T08:28:21;0.30;;;0.30;;
13991;SDS011;7070;53.586;9.692;2022-07-24T08:30:50;0.30;;;0.30;;
13991;SDS011;7070;53.586;9.692;2022-07-24T08:33:17;0.23;;;0.23;;
13991;SDS011;7070;53.586;9.692;2022-07-24T08:35:44;0.23;;;0.23;;
13991;SDS011;7070;53.586;9.692;2022-07-24T08:38:11;0.30;;;0.30;;
13991;SDS011;7070;53.586;9.692;2022-07-24T08:40:38;0.30;;;0.30;;
13991;SDS011;7070;53.586;9.692;2022-07-24T08:43:06;0.30;;;0.30;;
13991;SDS011;7070;53.586;9.692;2022-07-24T08:45:34;0.30;;;0.30;;
13991;SDS011;7070;53.586;9.692;2022-07-24T08:48:04;0.20;;;0.20;;
13991;SDS011;7070;53.586;9.692;2022-07-24T08:50:33;0.20;;;0.20;;
13991;SDS011;7070;53.586;9.692;2022-07-24T08:53:01;0.30;;;0.30;;
13991;SDS011;7070;53.586;9.692;2022-07-24T08:55:29;0.30;;;0.30;;
13991;SDS011;7070;53.586;9.692;2022-07-24T08:57:56;0.30;;;0.30;;
13991;SDS011;7070;53.586;9.692;2022-07-24T09:00:23;0.27;;;0.27;;
13991;SDS011;7070;53.586;9.692;2022-07-24T09:02:51;0.30;;;0.30;;
13991;SDS011;7070;53.586;9.692;2022-07-24T09:05:19;0.30;;;0.30;;
13991;SDS011;7070;53.586;9.692;2022-07-24T09:07:46;0.20;;;0.20;;
13991;SDS011;7070;53.586;9.692;2022-07-24T09:10:14;0.30;;;0.30;;
13991;SDS011;7070;53.586;9.692;2022-07-24T09:12:43;0.20;;;0.20;;
13991;SDS011;7070;53.586;9.692;2022-07-24T09:15:11;0.30;;;0.30;;
13991;SDS011;7070;53.586;9.692;2022-07-24T09:17:49;0.20;;;0.20;;
13991;SDS011;7070;53.586;9.692;2022-07-24T09:20:17;0.20;;;0.20;;
13991;SDS011;7070;53.586;9.692;2022-07-24T09:22:46;0.30;;;0.30;;
13991;SDS011;7070;53.586;9.692;2022-07-24T09:25:14;0.20;;;0.20;;
13991;SDS011;7070;53.586;9.692;2022-07-24T09:27:47;0.20;;;0.20;;
13991;SDS011;7070;53.586;9.692;2022-07-24T09:30:26;0.30;;;0.30;;
13991;SDS011;7070;53.586;9.692;2022-07-24T09:32:55;0.30;;;0.30;;
13991;SDS011;7070;53.586;9.692;2022-07-24T09:35:30;0.20;;;0.20;;
13991;SDS011;7070;53.586;9.692;2022-07-24T09:37:58;0.20;;;0.20;;
13991;SDS011;7070;53.586;9.692;2022-07-24T09:40:28;0.20;;;0.20;;
13991;SDS011;7070;53.586;9.692;2022-07-24T09:43:11;0.30;;;0.30;;
13991;SDS011;7070;53.586;9.692;2022-07-24T09:45:52;0.27;;;0.27;;
13991;SDS011;7070;53.586;9.692;2022-07-24T09:48:22;0.20;;;0.20;;
13991;SDS011;7070;53.586;9.692;2022-07-24T09:50:51;0.20;;;0.20;;
13991;SDS011;7070;53.586;9.692;2022-07-24T09:53:20;0.20;;;0.20;;
13991;SDS011;7070;53.586;9.692;2022-07-24T09:56:02;0.30;;;0.30;;
13991;SDS011;7070;53.586;9.692;2022-07-24T09:58:31;0.30;;;0.30;;
13991;SDS011;7070;53.586;9.692;2022-07-24T10:00:59;0.30;;;0.30;;
13991;SDS011;7070;53.586;9.692;2022-07-24T10:03:28;0.30;;;0.30;;
13991;SDS011;7070;53.586;9.692;2022-07-24T10:05:59;0.20;;;0.20;;
13991;SDS011;7070;53.586;9.692;2022-07-24T10:08:27;0.20;;;0.20;;
13991;SDS011;7070;53.586;9.692;2022-07-24T10:10:55;0.20;;;0.20;;
13991;SDS011;7070;53.586;9.692;2022-07-24T10:13:23;0.30;;;0.30;;
13991;SDS011;7070;53.586;9.692;2022-07-24T10:15:53;0.30;;;0.30;;
13991;SDS011;7070;53.586;9.692;2022-07-24T10:18:29;0.30;;;0.30;;
13991;SDS011;7070;53.586;9.692;2022-07-24T10:21:07;0.20;;;0.20;;
13991;SDS011;7070;53.586;9.692;2022-07-24T10:23:45;0.20;;;0.20;;
13991;SDS011;7070;53.586;9.692;2022-07-24T10:26:37;0.30;;;0.30;;
13991;SDS011;7070;53.586;9.692;2022-07-24T10:29:07;0.20;;;0.20;;
13991;SDS011;7070;53.586;9.692;2022-07-24T10:31:36;0.30;;;0.30;;
13991;SDS011;7070;53.586;9.692;2022-07-24T10:34:04;0.30;;;0.30;;
13991;SDS011;7070;53.586;9.692;2022-07-24T10:36:39;0.20;;;0.20;;
13991;SDS011;7070;53.586;9.692;2022-07-24T10:39:12;0.20;;;0.20;;
13991;SDS011;7070;53.586;9.692;2022-07-24T10:41:44;0.30;;;0.30;;
13991;SDS011;7070;53.586;9.692;2022-07-24T10:44:26;0.20;;;0.20;;
13991;SDS011;7070;53.586;9.692;2022-07-24T10:46:56;0.20;;;0.20;;
13991;SDS011;7070;53.586;9.692;2022-07-24T10:49:44;0.30;;;0.30;;
13991;SDS011;7070;53.586;9.692;2022-07-24T10:52:22;0.20;;;0.20;;
13991;SDS011;7070;53.586;9.692;2022-07-24T10:57:54;0.20;;;0.20;;
13991;SDS011;7070;53.586;9.692;2022-07-24T11:00:25;0.20;;;0.20;;
13991;SDS011;7070;53.586;9.692;2022-07-24T11:03:00;0.20;;;0.20;;
13991;SDS011;7070;53.586;9.692;2022-07-24T11:05:29;0.20;;;0.20;;
13991;SDS011;7070;53.586;9.692;2022-07-24T11:11:04;0.15;;;0.15;;
13991;SDS011;7070;53.586;9.692;2022-07-24T11:13:39;0.20;;;0.20;;
13991;SDS011;7070;53.586;9.692;2022-07-24T11:16:21;0.20;;;0.20;;
13991;SDS011;7070;53.586;9.692;2022-07-24T11:22:01;0.20;;;0.20;;
13991;SDS011;7070;53.586;9.692;2022-07-24T11:24:33;0.17;;;0.17;;
13991;SDS011;7070;53.586;9.692;2022-07-24T11:27:04;0.20;;;0.20;;
13991;SDS011;7070;53.586;9.692;2022-07-24T11:29:32;0.20;;;0.20;;
13991;SDS011;7070;53.586;9.692;2022-07-24T11:32:01;0.22;;;0.22;;
13991;SDS011;7070;53.586;9.692;2022-07-24T11:34:30;0.30;;;0.30;;
13991;SDS011;7070;53.586;9.692;2022-07-24T11:36:58;0.20;;;0.20;;
13991;SDS011;7070;53.586;9.692;2022-07-24T11:39:27;0.20;;;0.20;;
13991;SDS011;7070;53.586;9.692;2022-07-24T11:41:57;0.20;;;0.20;;
13991;SDS011;7070;53.586;9.692;2022-07-24T11:44:27;0.20;;;0.20;;
13991;SDS011;7070;53.586;9.692;2022-07-24T11:46:55;0.20;;;0.20;;
13991;SDS011;7070;53.586;9.692;2022-07-24T11:49:23;0.20;;;0.20;;
13991;SDS011;7070;53.586;9.692;2022-07-24T11:51:51;0.30;;;0.30;;
13991;SDS011;7070;53.586;9.692;2022-07-24T11:54:20;0.20;;;0.20;;
13991;SDS011;7070;53.586;9.692;2022-07-24T11:56:49;0.20;;;0.20;;
13991;SDS011;7070;53.586;9.692;2022-07-24T11:59:25;0.20;;;0.20;;
13991;SDS011;7070;53.586;9.692;2022-07-24T12:01:56;0.30;;;0.30;;
13991;SDS011;7070;53.586;9.692;2022-07-24T12:04:28;0.30;;;0.30;;
13991;SDS011;7070;53.586;9.692;2022-07-24T12:06:55;0.20;;;0.20;;
13991;SDS011;7070;53.586;9.692;2022-07-24T12:09:25;0.30;;;0.30;;
13991;SDS011;7070;53.586;9.692;2022-07-24T12:11:52;0.20;;;0.20;;
13991;SDS011;7070;53.586;9.692;2022-07-24T12:14:20;0.20;;;0.20;;
13991;SDS011;7070;53.586;9.692;2022-07-24T12:16:53;0.25;;;0.25;;
13991;SDS011;7070;53.586;9.692;2022-07-24T12:19:22;0.20;;;0.20;;
13991;SDS011;7070;53.586;9.692;2022-07-24T12:21:51;0.20;;;0.20;;
13991;SDS011;7070;53.586;9.692;2022-07-24T12:24:19;0.17;;;0.17;;
13991;SDS011;7070;53.586;9.692;2022-07-24T12:26:47;0.30;;;0.30;;
13991;SDS011;7070;53.586;9.692;2022-07-24T12:29:16;0.30;;;0.30;;
13991;SDS011;7070;53.586;9.692;2022-07-24T12:31:43;0.20;;;0.20;;
13991;SDS011;7070;53.586;9.692;2022-07-24T12:34:11;0.20;;;0.20;;
13991;SDS011;7070;53.586;9.692;2022-07-24T12:36:38;0.20;;;0.20;;
13991;SDS011;7070;53.586;9.692;2022-07-24T12:39:06;0.20;;;0.20;;
13991;SDS011;7070;53.586;9.692;2022-07-24T12:41:41;0.20;;;0.20;;
13991;SDS011;7070;53.586;9.692;2022-07-24T12:44:10;0.20;;;0.20;;
13991;SDS011;7070;53.586;9.692;2022-07-24T12:46:37;0.20;;;0.20;;
13991;SDS011;7070;53.586;9.692;2022-07-24T12:49:05;0.20;;;0.20;;
13991;SDS011;7070;53.586;9.692;2022-07-24T12:51:44;0.20;;;0.20;;
13991;SDS011;7070;53.586;9.692;2022-07-24T12:54:14;0.20;;;0.20;;
13991;SDS011;7070;53.586;9.692;2022-07-24T12:56:42;0.17;;;0.17;;
13991;SDS011;7070;53.586;9.692;2022-07-24T12:59:09;0.20;;;0.20;;
13991;SDS011;7070;53.586;9.692;2022-07-24T13:01:49;0.20;;;0.20;;
13991;SDS011;7070;53.586;9.692;2022-07-24T13:04:17;0.20;;;0.20;;
13991;SDS011;7070;53.586;9.692;2022-07-24T13:06:47;0.20;;;0.20;;
13991;SDS011;7070;53.586;9.692;2022-07-24T13:09:15;0.20;;;0.20;;
13991;SDS011;7070;53.586;9.692;2022-07-24T13:11:44;0.20;;;0.20;;
13991;SDS011;7070;53.586;9.692;2022-07-24T13:14:12;0.20;;;0.20;;
13991;SDS011;7070;53.586;9.692;2022-07-24T13:16:40;0.20;;;0.20;;
13991;SDS011;7070;53.586;9.692;2022-07-24T13:19:08;0.20;;;0.20;;
13991;SDS011;7070;53.586;9.692;2022-07-24T13:21:36;0.20;;;0.20;;
13991;SDS011;7070;53.586;9.692;2022-07-24T13:24:06;0.20;;;0.20;;
13991;SDS011;7070;53.586;9.692;2022-07-24T13:26:34;0.20;;;0.20;;
13991;SDS011;7070;53.586;9.692;2022-07-24T13:29:01;0.20;;;0.20;;
13991;SDS011;7070;53.586;9.692;2022-07-24T13:31:29;0.20;;;0.20;;
13991;SDS011;7070;53.586;9.692;2022-07-24T13:33:56;0.20;;;0.20;;
13991;SDS011;7070;53.586;9.692;2022-07-24T13:36:23;0.20;;;0.20;;
13991;SDS011;7070;53.586;9.692;2022-07-24T13:38:50;0.20;;;0.20;;
13991;SDS011;7070;53.586;9.692;2022-07-24T13:41:19;0.20;;;0.20;;
13991;SDS011;7070;53.586;9.692;2022-07-24T13:43:46;0.20;;;0.20;;
13991;SDS011;7070;53.586;9.692;2022-07-24T13:46:13;0.20;;;0.20;;
13991;SDS011;7070;53.586;9.692;2022-07-24T13:48:41;0.20;;;0.20;;
13991;SDS011;7070;53.586;9.692;2022-07-24T13:51:08;0.20;;;0.20;;
13991;SDS011;7070;53.586;9.692;2022-07-24T13:53:35;0.20;;;0.20;;
13991;SDS011;7070;53.586;9.692;2022-07-24T13:56:03;0.20;;;0.20;;
13991;SDS011;7070;53.586;9.692;2022-07-24T13:58:32;0.20;;;0.20;;
13991;SDS011;7070;53.586;9.692;2022-07-24T14:01:02;0.20;;;0.20;;
13991;SDS011;7070;53.586;9.692;2022-07-24T14:03:30;0.30;;;0.30;;
13991;SDS011;7070;53.586;9.692;2022-07-24T14:05:57;0.20;;;0.20;;
13991;SDS011;7070;53.586;9.692;2022-07-24T14:08:24;0.20;;;0.20;;
13991;SDS011;7070;53.586;9.692;2022-07-24T14:10:51;0.20;;;0.20;;
13991;SDS011;7070;53.586;9.692;2022-07-24T14:13:18;0.20;;;0.20;;
13991;SDS011;7070;53.586;9.692;2022-07-24T14:15:46;0.20;;;0.20;;
13991;SDS011;7070;53.586;9.692;2022-07-24T14:18:13;0.20;;;0.20;;
13991;SDS011;7070;53.586;9.692;2022-07-24T14:20:42;0.20;;;0.20;;
13991;SDS011;7070;53.586;9.692;2022-07-24T14:23:09;0.20;;;0.20;;
13991;SDS011;7070;53.586;9.692;2022-07-24T14:25:38;0.20;;;0.20;;
13991;SDS011;7070;53.586;9.692;2022-07-24T14:28:05;0.20;;;0.20;;
13991;SDS011;7070;53.586;9.692;2022-07-24T14:30:32;0.22;;;0.22;;
13991;SDS011;7070;53.586;9.692;2022-07-24T14:33:00;0.20;;;0.20;;
13991;SDS011;7070;53.586;9.692;2022-07-24T14:35:27;0.20;;;0.20;;
13991;SDS011;7070;53.586;9.692;2022-07-24T14:37:56;0.20;;;0.20;;
13991;SDS011;7070;53.586;9.692;2022-07-24T14:40:23;0.20;;;0.20;;
13991;SDS011;7070;53.586;9.692;2022-07-24T14:42:50;0.20;;;0.20;;
13991;SDS011;7070;53.586;9.692;2022-07-24T14:45:17;0.20;;;0.20;;
13991;SDS011;7070;53.586;9.692;2022-07-24T14:47:44;0.20;;;0.20;;
13991;SDS011;7070;53.586;9.692;2022-07-24T14:50:12;0.20;;;0.20;;
13991;SDS011;7070;53.586;9.692;2022-07-24T14:52:39;0.20;;;0.20;;
13991;SDS011;7070;53.586;9.692;2022-07-24T14:55:07;0.20;;;0.20;;
13991;SDS011;7070;53.586;9.692;2022-07-24T14:57:34;0.20;;;0.20;;
13991;SDS011;7070;53.586;9.692;2022-07-24T15:00:02;0.20;;;0.20;;
13991;SDS011;7070;53.586;9.692;2022-07-24T15:02:31;0.20;;;0.20;;
13991;SDS011;7070;53.586;9.692;2022-07-24T15:04:58;0.20;;;0.20;;
13991;SDS011;7070;53.586;9.692;2022-07-24T15:07:26;0.10;;;0.10;;
13991;SDS011;7070;53.586;9.692;2022-07-24T15:09:53;0.20;;;0.20;;
13991;SDS011;7070;53.586;9.692;2022-07-24T15:12:20;0.20;;;0.20;;
13991;SDS011;7070;53.586;9.692;2022-07-24T15:14:46;0.20;;;0.20;;
13991;SDS011;7070;53.586;9.692;2022-07-24T15:17:13;0.20;;;0.20;;